Time;durP1;ratioP1;P1;durP2;ratioP2;P2;SDS_P1;SDS_P2;PMS_P1;PMS_P2;Temp;Humidity;BMP_temperature;BMP_pressure;BME280_temperature;BME280_humidity;BME280_pressure;Samples;Min_cycle;Max_cycle;Signal;HPM_P1;HPM_P2
2023/09/29 00:00:45;;;;;;;2.13;1.50;;;;;;;;;;10470717;28;20616;-76
2023/09/29 00:05:49;;;;;;;3.55;1.42;;;;;;;;;;10470558;28;20508;-76
2023/09/29 00:10:52;;;;;;;2.00;1.38;;;;;;;;;;10480306;28;20151;-76
2023/09/29 00:15:57;;;;;;;2.17;1.65;;;;;;;;;;10475901;28;20052;-76
2023/09/29 00:21:00;;;;;;;2.17;1.42;;;;;;;;;;10479026;28;20334;-76
2023/09/29 00:26:05;;;;;;;1.50;1.10;;;;;;;;;;10473913;28;20076;-76
2023/09/29 00:31:09;;;;;;;2.65;1.50;;;;;;;;;;10469184;28;20405;-76
2023/09/29 00:36:13;;;;;;;3.03;1.20;;;;;;;;;;10452624;28;20045;-77
2023/09/29 00:41:17;;;;;;;1.98;1.35;;;;;;;;;;10473381;28;20067;-76
2023/09/29 00:46:22;;;;;;;2.50;1.23;;;;;;;;;;10472869;28;20037;-76
2023/09/29 00:51:25;;;;;;;2.40;1.30;;;;;;;;;;10470869;28;20057;-76
2023/09/29 00:56:28;;;;;;;1.85;1.33;;;;;;;;;;10469557;28;20083;-76
2023/09/29 01:01:34;;;;;;;4.30;1.50;;;;;;;;;;10475549;28;20118;-76
2023/09/29 01:06:37;;;;;;;2.88;1.10;;;;;;;;;;10476863;28;20569;-76
2023/09/29 01:11:42;;;;;;;1.70;1.23;;;;;;;;;;10473614;28;20512;-76
2023/09/29 01:16:48;;;;;;;2.28;1.30;;;;;;;;;;10459519;28;20463;-76
2023/09/29 01:21:52;;;;;;;2.03;1.38;;;;;;;;;;10437285;28;20456;-75
2023/09/29 01:26:59;;;;;;;1.80;1.30;;;;;;;;;;10431445;28;20045;-76
2023/09/29 01:32:03;;;;;;;2.15;1.50;;;;;;;;;;10449028;28;20068;-75
2023/09/29 01:37:07;;;;;;;1.83;1.42;;;;;;;;;;10451248;28;20053;-76
2023/09/29 01:42:12;;;;;;;1.38;1.10;;;;;;;;;;10454401;28;20071;-76
2023/09/29 01:47:15;;;;;;;2.92;1.52;;;;;;;;;;10430112;28;20045;-76
2023/09/29 01:52:22;;;;;;;2.28;1.08;;;;;;;;;;10448869;28;20039;-76
2023/09/29 01:57:26;;;;;;;2.80;1.45;;;;;;;;;;10456233;28;20048;-76
2023/09/29 02:02:30;;;;;;;2.03;1.37;;;;;;;;;;10447883;28;20043;-77
2023/09/29 02:07:36;;;;;;;2.00;1.60;;;;;;;;;;10432351;28;20049;-76
2023/09/29 02:12:46;;;;;;;1.50;1.40;;;;;;;;;;10451701;28;20049;-76
2023/09/29 02:17:50;;;;;;;2.75;1.20;;;;;;;;;;10434278;28;20604;-76
2023/09/29 02:22:53;;;;;;;1.58;1.40;;;;;;;;;;10449899;28;20052;-76
2023/09/29 02:28:00;;;;;;;1.73;1.50;;;;;;;;;;10438557;28;20041;-76
2023/09/29 02:33:04;;;;;;;2.08;1.10;;;;;;;;;;10429830;28;20520;-76
2023/09/29 02:38:07;;;;;;;1.95;1.30;;;;;;;;;;10446564;28;20087;-76
2023/09/29 02:43:12;;;;;;;1.35;1.25;;;;;;;;;;10433782;28;20511;-77
2023/09/29 02:48:15;;;;;;;2.63;1.33;;;;;;;;;;10444789;28;20053;-76
2023/09/29 02:53:18;;;;;;;1.48;1.23;;;;;;;;;;10426513;28;20048;-76
2023/09/29 02:58:23;;;;;;;3.35;1.20;;;;;;;;;;10451587;28;20038;-76
2023/09/29 03:03:27;;;;;;;1.52;1.30;;;;;;;;;;10449371;28;20551;-77
2023/09/29 03:08:33;;;;;;;2.47;1.40;;;;;;;;;;10447137;28;20057;-76
2023/09/29 03:13:39;;;;;;;1.48;1.27;;;;;;;;;;10444881;28;20128;-76
2023/09/29 03:18:43;;;;;;;1.75;1.33;;;;;;;;;;10452295;28;20033;-76
2023/09/29 03:23:46;;;;;;;1.80;1.40;;;;;;;;;;10454000;28;20055;-76
2023/09/29 03:28:51;;;;;;;1.50;1.25;;;;;;;;;;10457868;28;20037;-76
2023/09/29 03:33:54;;;;;;;1.60;1.10;;;;;;;;;;10469414;28;20052;-76
2023/09/29 03:38:59;;;;;;;2.90;1.08;;;;;;;;;;10477967;28;20052;-76
2023/09/29 03:44:04;;;;;;;1.48;1.20;;;;;;;;;;10477600;28;20075;-76
2023/09/29 03:49:07;;;;;;;4.82;1.63;;;;;;;;;;10474235;28;20122;-76
2023/09/29 03:54:11;;;;;;;2.58;1.67;;;;;;;;;;10481151;28;20074;-76
2023/09/29 03:59:15;;;;;;;2.60;1.60;;;;;;;;;;10473463;28;20065;-76
2023/09/29 04:04:18;;;;;;;2.05;1.50;;;;;;;;;;10475094;28;20043;-76
2023/09/29 04:09:22;;;;;;;2.15;1.83;;;;;;;;;;10480862;28;20380;-76
2023/09/29 04:14:26;;;;;;;2.90;1.45;;;;;;;;;;10474307;28;20045;-76
2023/09/29 04:19:35;;;;;;;2.38;1.80;;;;;;;;;;10483835;28;20041;-76
2023/09/29 04:24:40;;;;;;;1.63;1.33;;;;;;;;;;10480417;28;20033;-76
2023/09/29 04:29:44;;;;;;;2.20;1.33;;;;;;;;;;10467484;28;20040;-76
2023/09/29 04:34:48;;;;;;;2.10;1.40;;;;;;;;;;10477627;28;20521;-76
2023/09/29 04:39:51;;;;;;;3.00;1.33;;;;;;;;;;10469513;28;20044;-77
2023/09/29 04:44:56;;;;;;;2.60;1.35;;;;;;;;;;10476716;28;20041;-76
2023/09/29 04:49:59;;;;;;;1.77;1.23;;;;;;;;;;10463962;28;20037;-76
2023/09/29 04:55:02;;;;;;;2.25;1.50;;;;;;;;;;10457948;28;20041;-76
2023/09/29 05:00:08;;;;;;;2.42;1.50;;;;;;;;;;10456571;28;20037;-77
2023/09/29 05:05:11;;;;;;;;;;;;;;;;;;10458736;28;20410;-76
2023/09/29 05:10:15;;;;;;;1.58;1.35;;;;;;;;;;10480623;28;19927;-76
2023/09/29 05:15:20;;;;;;;2.03;1.27;;;;;;;;;;10487090;28;20067;-77
2023/09/29 05:20:23;;;;;;;3.53;1.47;;;;;;;;;;10478845;28;20135;-76
2023/09/29 05:25:27;;;;;;;2.00;1.20;;;;;;;;;;10454995;28;20749;-76
2023/09/29 05:30:32;;;;;;;1.70;1.40;;;;;;;;;;10477158;28;20497;-77
2023/09/29 05:35:36;;;;;;;2.08;1.45;;;;;;;;;;10478904;28;20087;-76
2023/09/29 05:40:39;;;;;;;2.75;1.35;;;;;;;;;;10475698;28;20039;-77
2023/09/29 05:45:45;;;;;;;2.08;1.52;;;;;;;;;;10474861;28;20044;-76
2023/09/29 05:50:50;;;;;;;2.45;1.30;;;;;;;;;;10457278;28;20635;-76
2023/09/29 05:55:53;;;;;;;2.05;1.38;;;;;;;;;;10476343;28;20055;-76
2023/09/29 06:00:58;;;;;;;4.57;1.75;;;;;;;;;;10484814;28;20040;-76
2023/09/29 06:06:01;;;;;;;2.63;1.60;;;;;;;;;;10484953;28;20037;-76
2023/09/29 06:11:05;;;;;;;2.05;1.70;;;;;;;;;;10472384;28;20033;-76
2023/09/29 06:16:09;;;;;;;2.97;1.63;;;;;;;;;;10479831;28;20053;-77
2023/09/29 06:21:13;;;;;;;2.65;1.67;;;;;;;;;;10458908;28;20508;-76
2023/09/29 06:26:16;;;;;;;1.95;1.50;;;;;;;;;;10477783;28;20048;-76
2023/09/29 06:31:22;;;;;;;1.90;1.50;;;;;;;;;;10478605;28;20044;-77
2023/09/29 06:36:25;;;;;;;3.97;1.23;;;;;;;;;;10486409;28;20050;-76
2023/09/29 06:41:28;;;;;;;2.92;1.73;;;;;;;;;;10460265;28;20040;-76
2023/09/29 06:46:33;;;;;;;3.15;1.95;;;;;;;;;;10460256;28;20037;-76
2023/09/29 06:51:37;;;;;;;3.45;2.00;;;;;;;;;;10469891;28;20041;-76
2023/09/29 06:56:40;;;;;;;4.15;2.50;;;;;;;;;;10477340;28;20545;-76
2023/09/29 07:01:46;;;;;;;3.75;1.95;;;;;;;;;;10465871;28;20124;-76
2023/09/29 07:06:49;;;;;;;5.20;2.28;;;;;;;;;;10472805;28;20443;-77
2023/09/29 07:11:52;;;;;;;3.78;2.13;;;;;;;;;;10487487;28;20047;-77
2023/09/29 07:16:57;;;;;;;3.42;2.15;;;;;;;;;;10483943;28;20128;-76
2023/09/29 07:22:01;;;;;;;2.55;1.90;;;;;;;;;;10484780;28;20033;-77
2023/09/29 07:27:04;;;;;;;4.18;1.80;;;;;;;;;;10454331;28;20037;-77
2023/09/29 07:32:11;;;;;;;3.25;1.50;;;;;;;;;;10468134;28;20043;-77
2023/09/29 07:37:15;;;;;;;2.63;1.20;;;;;;;;;;10462836;28;20115;-76
2023/09/29 07:42:18;;;;;;;2.30;1.70;;;;;;;;;;10519985;22;20148;-76
2023/09/29 07:47:23;;;;;;;3.45;1.40;;;;;;;;;;10481595;28;20119;-77
2023/09/29 07:52:28;;;;;;;2.53;1.83;;;;;;;;;;10484139;28;20455;-77
2023/09/29 07:57:31;;;;;;;4.60;1.95;;;;;;;;;;10478800;28;20041;-76
2023/09/29 08:02:36;;;;;;;2.33;1.92;;;;;;;;;;10475446;28;20056;-76
2023/09/29 08:07:40;;;;;;;1.88;1.60;;;;;;;;;;10487238;28;20043;-76
2023/09/29 08:12:43;;;;;;;2.75;1.67;;;;;;;;;;10481570;28;20048;-76
2023/09/29 08:17:48;;;;;;;2.95;1.60;;;;;;;;;;10482947;28;20426;-76
2023/09/29 08:22:51;;;;;;;2.55;1.75;;;;;;;;;;10482738;28;20048;-76
2023/09/29 08:27:56;;;;;;;2.65;1.70;;;;;;;;;;10470953;28;20062;-76
2023/09/29 08:33:01;;;;;;;2.85;1.25;;;;;;;;;;10486102;28;20045;-76
2023/09/29 08:38:13;;;;;;;2.50;1.67;;;;;;;;;;10487523;28;20075;-76
2023/09/29 08:43:17;;;;;;;1.98;1.70;;;;;;;;;;10487557;28;20041;-75
2023/09/29 08:48:23;;;;;;;2.00;1.63;;;;;;;;;;10481534;28;20086;-75
2023/09/29 08:53:28;;;;;;;1.85;1.52;;;;;;;;;;10484954;28;20045;-75
2023/09/29 08:58:32;;;;;;;2.83;1.90;;;;;;;;;;10493800;28;20080;-75
2023/09/29 09:03:37;;;;;;;1.52;1.23;;;;;;;;;;10483377;28;20059;-75
2023/09/29 09:08:40;;;;;;;1.60;1.33;;;;;;;;;;10488071;28;20659;-75
2023/09/29 09:13:58;;;;;;;3.60;1.55;;;;;;;;;;10480343;28;20490;-75
2023/09/29 09:19:11;;;;;;;3.13;1.45;;;;;;;;;;10485845;28;20084;-75
2023/09/29 09:24:19;;;;;;;2.53;1.52;;;;;;;;;;10490758;28;20040;-75
2023/09/29 09:29:23;;;;;;;2.45;1.60;;;;;;;;;;10483781;28;20048;-75
2023/09/29 09:34:35;;;;;;;2.65;1.63;;;;;;;;;;10489767;28;20048;-75
2023/09/29 09:39:42;;;;;;;2.65;1.48;;;;;;;;;;10482967;28;20044;-75
2023/09/29 09:44:47;;;;;;;2.10;1.42;;;;;;;;;;10489397;28;20418;-75
2023/09/29 09:50:00;;;;;;;4.80;2.60;;;;;;;;;;10486353;28;20040;-75
2023/09/29 09:55:10;;;;;;;4.22;2.78;;;;;;;;;;10489524;28;20486;-75
2023/09/29 10:00:15;;;;;;;5.20;2.50;;;;;;;;;;10484725;28;20044;-75
2023/09/29 10:05:23;;;;;;;3.80;1.90;;;;;;;;;;10480503;28;20757;-75
2023/09/29 10:10:31;;;;;;;3.22;2.05;;;;;;;;;;10481988;28;20052;-75
2023/09/29 10:15:35;;;;;;;2.75;2.00;;;;;;;;;;10484442;28;20429;-75
2023/09/29 10:20:40;;;;;;;2.45;1.70;;;;;;;;;;10485047;28;20049;-75
2023/09/29 10:25:55;;;;;;;2.78;1.60;;;;;;;;;;10482453;28;20093;-75
2023/09/29 10:31:06;;;;;;;;;;;;;;;;;;10467420;28;20048;-75
2023/09/29 10:36:13;;;;;;;3.25;2.17;;;;;;;;;;10485939;28;20282;-75
2023/09/29 10:41:18;;;;;;;4.07;2.08;;;;;;;;;;10484423;28;20049;-75
2023/09/29 10:46:30;;;;;;;2.90;1.80;;;;;;;;;;10480961;28;20409;-75
2023/09/29 10:51:41;;;;;;;2.35;1.75;;;;;;;;;;10480028;28;20446;-75
2023/09/29 10:56:49;;;;;;;1.67;1.50;;;;;;;;;;10493063;28;20039;-75
2023/09/29 11:01:53;;;;;;;3.40;1.90;;;;;;;;;;10483960;28;20052;-75
2023/09/29 11:07:02;;;;;;;2.47;1.55;;;;;;;;;;10484775;28;20636;-77
2023/09/29 11:12:06;;;;;;;2.67;2.00;;;;;;;;;;10466856;28;20047;-75
2023/09/29 11:17:10;;;;;;;4.90;2.47;;;;;;;;;;10482795;28;20037;-75
2023/09/29 11:22:21;;;;;;;3.28;2.40;;;;;;;;;;10484070;28;20044;-75
2023/09/29 11:27:30;;;;;;;2.70;2.05;;;;;;;;;;10483541;28;20118;-75
2023/09/29 11:38:06;;;;;;;5.85;2.03;;;;;;;;;;10468404;28;20067;-75
2023/09/29 11:43:12;;;;;;;4.30;2.45;;;;;;;;;;10493977;28;20047;-75
2023/09/29 11:48:16;;;;;;;2.42;1.77;;;;;;;;;;10465928;28;20120;-75
2023/09/29 11:53:30;;;;;;;4.80;1.60;;;;;;;;;;10488083;28;20052;-75
2023/09/29 11:58:33;;;;;;;5.70;1.80;;;;;;;;;;10489065;28;20049;-75
2023/09/29 12:03:45;;;;;;;3.58;1.65;;;;;;;;;;10489421;28;20049;-75
2023/09/29 12:08:50;;;;;;;5.72;2.30;;;;;;;;;;10481349;28;20131;-75
2023/09/29 12:14:00;;;;;;;4.77;2.40;;;;;;;;;;10491174;28;20041;-75
2023/09/29 12:19:05;;;;;;;6.53;3.00;;;;;;;;;;10475855;28;20098;-75
2023/09/29 12:24:20;;;;;;;6.63;3.25;;;;;;;;;;10489708;28;20037;-75
2023/09/29 12:29:23;;;;;;;8.45;3.80;;;;;;;;;;10473629;28;20056;-75
2023/09/29 12:34:28;;;;;;;8.63;4.03;;;;;;;;;;10493044;28;20118;-74
2023/09/29 12:39:41;;;;;;;9.10;4.13;;;;;;;;;;10490634;28;20048;-75
2023/09/29 12:44:46;;;;;;;14.15;5.05;;;;;;;;;;10487714;28;20051;-75
2023/09/29 12:49:50;;;;;;;11.03;4.23;;;;;;;;;;10486267;28;20528;-75
2023/09/29 12:54:56;;;;;;;11.30;5.13;;;;;;;;;;10481944;28;20311;-75
2023/09/29 13:00:00;;;;;;;18.35;7.35;;;;;;;;;;10520485;22;20047;-75
2023/09/29 13:05:06;;;;;;;20.73;8.60;;;;;;;;;;10507474;28;20036;-75
2023/09/29 13:10:13;;;;;;;22.60;9.30;;;;;;;;;;10522256;28;20696;-75
2023/09/29 13:15:16;;;;;;;20.70;9.38;;;;;;;;;;10510107;28;20121;-75
2023/09/29 13:20:20;;;;;;;22.05;10.48;;;;;;;;;;10532301;28;20052;-75
2023/09/29 13:25:26;;;;;;;23.58;10.45;;;;;;;;;;10523896;28;20055;-75
2023/09/29 13:30:29;;;;;;;18.75;8.50;;;;;;;;;;10534251;28;20052;-75
2023/09/29 13:35:38;;;;;;;22.67;10.02;;;;;;;;;;10505666;28;20068;-75
2023/09/29 13:40:43;;;;;;;24.95;11.00;;;;;;;;;;10538310;22;20052;-78
2023/09/29 13:45:47;;;;;;;23.13;10.60;;;;;;;;;;10508642;28;20044;-78
2023/09/29 13:50:50;;;;;;;20.33;9.65;;;;;;;;;;10540830;28;20509;-77
2023/09/29 13:55:55;;;;;;;23.60;10.32;;;;;;;;;;10516684;28;20189;-77
2023/09/29 14:00:58;;;;;;;23.55;10.68;;;;;;;;;;10533995;28;20119;-77
2023/09/29 14:06:01;;;;;;;22.40;10.45;;;;;;;;;;10535323;28;20042;-78
2023/09/29 14:11:06;;;;;;;18.42;8.57;;;;;;;;;;10534621;28;20042;-77
2023/09/29 14:16:09;;;;;;;21.25;9.15;;;;;;;;;;10535098;28;20058;-77
2023/09/29 14:21:12;;;;;;;19.65;8.88;;;;;;;;;;10534993;28;20044;-77
2023/09/29 14:26:17;;;;;;;19.15;8.25;;;;;;;;;;10530381;28;20036;-77
2023/09/29 14:31:20;;;;;;;17.75;7.80;;;;;;;;;;10534657;28;20044;-78
2023/09/29 14:36:25;;;;;;;19.52;8.30;;;;;;;;;;10534634;28;20040;-77
2023/09/29 14:41:30;;;;;;;18.48;7.85;;;;;;;;;;10534911;28;20466;-78
2023/09/29 14:46:33;;;;;;;15.47;7.50;;;;;;;;;;10535587;28;20044;-77
2023/09/29 14:51:36;;;;;;;18.75;7.82;;;;;;;;;;10538071;28;20051;-78
2023/09/29 14:56:41;;;;;;;17.88;8.23;;;;;;;;;;10538291;28;20100;-78
2023/09/29 15:01:44;;;;;;;17.30;8.25;;;;;;;;;;10539574;28;20047;-78
2023/09/29 15:06:48;;;;;;;21.08;8.80;;;;;;;;;;10534408;28;20032;-78
2023/09/29 15:11:53;;;;;;;22.77;8.27;;;;;;;;;;10535671;28;20044;-78
2023/09/29 15:16:56;;;;;;;19.23;8.32;;;;;;;;;;10541063;28;20111;-77
2023/09/29 15:21:59;;;;;;;18.85;8.10;;;;;;;;;;10542231;28;20086;-78
2023/09/29 15:27:04;;;;;;;20.35;9.00;;;;;;;;;;10541500;28;20036;-78
2023/09/29 15:32:08;;;;;;;22.90;9.45;;;;;;;;;;10541088;28;20044;-77
2023/09/29 15:37:11;;;;;;;18.95;8.40;;;;;;;;;;10541640;28;20038;-77
2023/09/29 15:42:17;;;;;;;21.40;7.93;;;;;;;;;;10540650;28;20051;-77
2023/09/29 15:47:21;;;;;;;14.55;6.72;;;;;;;;;;10540651;28;20071;-78
2023/09/29 15:52:24;;;;;;;15.05;7.45;;;;;;;;;;10539541;28;20040;-78
2023/09/29 15:57:29;;;;;;;17.33;7.88;;;;;;;;;;10523579;28;20592;-78
2023/09/29 16:02:32;;;;;;;16.50;7.32;;;;;;;;;;10539627;28;20040;-78
2023/09/29 16:07:35;;;;;;;15.10;6.00;;;;;;;;;;10537211;28;20032;-77
2023/09/29 16:12:40;;;;;;;15.40;6.72;;;;;;;;;;10540938;28;20050;-77
2023/09/29 16:17:44;;;;;;;16.45;6.05;;;;;;;;;;10539079;28;20161;-78
2023/09/29 16:22:48;;;;;;;12.90;5.85;;;;;;;;;;10542438;28;20105;-78
2023/09/29 16:27:53;;;;;;;13.65;5.32;;;;;;;;;;10539350;28;20055;-78
2023/09/29 16:32:56;;;;;;;11.55;4.88;;;;;;;;;;10533669;28;20040;-78
2023/09/29 16:38:01;;;;;;;13.00;5.82;;;;;;;;;;10520381;28;20063;-77
2023/09/29 16:43:05;;;;;;;11.30;5.20;;;;;;;;;;10538400;28;20036;-79
2023/09/29 16:48:09;;;;;;;10.23;4.90;;;;;;;;;;10543750;28;20040;-78
2023/09/29 16:53:12;;;;;;;12.95;5.40;;;;;;;;;;10520116;28;20043;-78
2023/09/29 16:58:17;;;;;;;12.35;5.22;;;;;;;;;;10532434;28;20102;-77
2023/09/29 17:03:20;;;;;;;12.07;5.22;;;;;;;;;;10552264;28;20108;-77
2023/09/29 17:08:23;;;;;;;13.70;5.55;;;;;;;;;;10552719;28;20040;-78
2023/09/29 17:13:29;;;;;;;10.80;5.13;;;;;;;;;;10538031;28;20471;-78
2023/09/29 17:18:34;;;;;;;11.50;4.87;;;;;;;;;;10538082;28;20039;-77
2023/09/29 17:23:37;;;;;;;10.30;4.80;;;;;;;;;;10536987;28;20423;-78
2023/09/29 17:28:42;;;;;;;13.70;5.88;;;;;;;;;;10535920;28;20040;-77
2023/09/29 17:33:46;;;;;;;12.82;4.03;;;;;;;;;;10518936;28;20131;-77
2023/09/29 17:38:52;;;;;;;6.60;2.95;;;;;;;;;;10517013;28;20444;-77
2023/09/29 17:43:56;;;;;;;6.15;2.78;;;;;;;;;;10517335;28;20040;-77
2023/09/29 17:49:00;;;;;;;8.02;3.05;;;;;;;;;;10535198;28;20043;-77
2023/09/29 17:54:03;;;;;;;5.10;2.47;;;;;;;;;;10536362;28;20143;-78
2023/09/29 17:59:08;;;;;;;6.13;2.63;;;;;;;;;;10534145;28;20071;-78
2023/09/29 18:04:11;;;;;;;6.85;2.40;;;;;;;;;;10535069;28;20071;-77
2023/09/29 18:09:15;;;;;;;5.75;2.42;;;;;;;;;;10536217;28;20427;-77
2023/09/29 18:14:19;;;;;;;6.20;2.55;;;;;;;;;;10540756;28;20063;-77
2023/09/29 18:19:24;;;;;;;5.82;2.30;;;;;;;;;;10534292;28;20047;-77
2023/09/29 18:24:27;;;;;;;7.45;2.22;;;;;;;;;;10534095;28;20052;-78
2023/09/29 18:29:32;;;;;;;5.13;1.92;;;;;;;;;;10533202;28;20747;-78
2023/09/29 18:34:35;;;;;;;2.30;1.27;;;;;;;;;;10533736;28;20046;-79
2023/09/29 18:39:38;;;;;;;1.30;0.70;;;;;;;;;;10535462;28;20056;-79
2023/09/29 18:44:43;;;;;;;0.95;0.50;;;;;;;;;;10535261;28;20044;-80
2023/09/29 18:49:46;;;;;;;0.98;0.38;;;;;;;;;;10539753;28;20047;-79
2023/09/29 18:54:50;;;;;;;0.57;0.38;;;;;;;;;;10533848;28;20131;-80
2023/09/29 18:59:55;;;;;;;0.93;0.47;;;;;;;;;;10532867;28;20576;-80
2023/09/29 19:04:59;;;;;;;0.98;0.40;;;;;;;;;;10537551;28;20070;-79
2023/09/29 19:10:03;;;;;;;0.60;0.43;;;;;;;;;;10545521;28;20095;-79
2023/09/29 19:15:10;;;;;;;0.40;0.40;;;;;;;;;;10530976;28;20598;-79
2023/09/29 19:20:13;;;;;;;0.77;0.30;;;;;;;;;;10518709;28;20047;-79
2023/09/29 19:25:17;;;;;;;0.70;0.52;;;;;;;;;;10525292;28;20151;-78
2023/09/29 19:30:22;;;;;;;1.98;0.70;;;;;;;;;;10533541;28;20056;-78
2023/09/29 19:35:26;;;;;;;1.58;0.60;;;;;;;;;;10531284;28;20094;-79
2023/09/29 19:40:29;;;;;;;0.80;0.40;;;;;;;;;;10536950;28;20043;-78
2023/09/29 19:45:33;;;;;;;1.25;0.60;;;;;;;;;;10534796;28;20040;-78
2023/09/29 19:50:39;;;;;;;2.42;1.13;;;;;;;;;;10531595;28;20037;-78
2023/09/29 19:55:47;;;;;;;1.33;0.90;;;;;;;;;;10515782;28;20048;-78
2023/09/29 20:00:52;;;;;;;2.25;1.08;;;;;;;;;;10519336;28;20043;-78
2023/09/29 20:05:55;;;;;;;2.05;0.85;;;;;;;;;;10543925;28;20040;-78
2023/09/29 20:10:58;;;;;;;1.95;0.80;;;;;;;;;;10548483;28;20158;-78
2023/09/29 20:16:03;;;;;;;1.95;0.63;;;;;;;;;;10544114;28;20400;-78
2023/09/29 20:21:06;;;;;;;1.98;0.65;;;;;;;;;;10538822;28;20075;-78
2023/09/29 20:26:12;;;;;;;2.73;1.00;;;;;;;;;;10537938;28;20093;-78
2023/09/29 20:31:16;;;;;;;1.38;0.80;;;;;;;;;;10537866;28;20386;-78
2023/09/29 20:36:20;;;;;;;2.20;0.82;;;;;;;;;;10537925;28;20527;-78
2023/09/29 20:41:23;;;;;;;2.88;0.90;;;;;;;;;;10540852;28;20048;-78
2023/09/29 20:46:28;;;;;;;2.08;0.80;;;;;;;;;;10538054;28;20074;-78
2023/09/29 20:51:32;;;;;;;1.40;0.68;;;;;;;;;;10538005;28;20054;-78
2023/09/29 20:56:36;;;;;;;1.85;0.95;;;;;;;;;;10537680;28;20052;-78
2023/09/29 21:01:40;;;;;;;1.27;0.60;;;;;;;;;;10537082;28;20050;-78
2023/09/29 21:06:43;;;;;;;2.20;0.80;;;;;;;;;;10550048;28;20611;-78
2023/09/29 21:11:47;;;;;;;3.00;0.93;;;;;;;;;;10555420;28;20436;-79
2023/09/29 21:16:52;;;;;;;2.22;1.00;;;;;;;;;;10546961;28;20036;-78
2023/09/29 21:21:55;;;;;;;0.75;0.68;;;;;;;;;;10535373;28;20040;-78
2023/09/29 21:26:59;;;;;;;2.00;1.10;;;;;;;;;;10536701;28;20489;-78
2023/09/29 21:32:04;;;;;;;1.13;0.82;;;;;;;;;;10517796;28;20119;-78
2023/09/29 21:37:08;;;;;;;2.08;0.73;;;;;;;;;;10539594;28;20032;-78
2023/09/29 21:42:11;;;;;;;2.72;0.90;;;;;;;;;;10541749;28;20047;-78
2023/09/29 21:47:16;;;;;;;3.25;1.17;;;;;;;;;;10534940;28;20051;-78
2023/09/29 21:52:20;;;;;;;3.22;1.02;;;;;;;;;;10529367;28;20047;-78
2023/09/29 21:57:24;;;;;;;2.30;0.82;;;;;;;;;;10515980;28;20044;-78
2023/09/29 22:02:30;;;;;;;2.13;0.98;;;;;;;;;;10531631;28;20468;-78
2023/09/29 22:07:33;;;;;;;2.30;0.85;;;;;;;;;;10537199;28;20051;-78
2023/09/29 22:12:37;;;;;;;1.30;0.80;;;;;;;;;;10516298;28;20040;-79
2023/09/29 22:17:42;;;;;;;2.00;1.10;;;;;;;;;;10534104;28;20099;-79
2023/09/29 22:22:45;;;;;;;1.37;0.60;;;;;;;;;;10514809;28;20050;-78
2023/09/29 22:27:48;;;;;;;2.65;1.15;;;;;;;;;;10534148;28;20036;-79
2023/09/29 22:32:53;;;;;;;2.70;1.27;;;;;;;;;;10537885;28;20035;-78
2023/09/29 22:37:57;;;;;;;3.10;1.55;;;;;;;;;;10538878;28;20040;-78
2023/09/29 22:43:00;;;;;;;2.95;1.35;;;;;;;;;;10532948;28;20404;-78
2023/09/29 22:48:06;;;;;;;2.00;1.20;;;;;;;;;;10519426;28;20036;-78
2023/09/29 22:53:09;;;;;;;2.30;1.27;;;;;;;;;;10533196;28;20481;-78
2023/09/29 22:58:12;;;;;;;2.00;1.25;;;;;;;;;;10532760;28;20052;-78
2023/09/29 23:03:18;;;;;;;3.45;1.67;;;;;;;;;;10532675;28;20397;-78
2023/09/29 23:08:22;;;;;;;3.72;1.38;;;;;;;;;;10539658;28;20051;-79
2023/09/29 23:13:25;;;;;;;1.67;1.25;;;;;;;;;;10559461;28;20127;-80
2023/09/29 23:18:31;;;;;;;2.53;1.65;;;;;;;;;;10538346;28;20050;-79
2023/09/29 23:23:35;;;;;;;2.53;1.50;;;;;;;;;;10532771;28;20102;-79
2023/09/29 23:28:38;;;;;;;2.58;1.30;;;;;;;;;;10532400;28;20044;-79
2023/09/29 23:33:42;;;;;;;2.85;1.27;;;;;;;;;;10535227;28;20409;-78
2023/09/29 23:38:46;;;;;;;3.53;1.92;;;;;;;;;;10540676;28;20063;-78
2023/09/29 23:43:49;;;;;;;3.08;1.50;;;;;;;;;;10533156;28;20046;-78
2023/09/29 23:48:54;;;;;;;3.47;1.95;;;;;;;;;;10539721;28;20036;-79
2023/09/29 23:53:57;;;;;;;2.53;1.58;;;;;;;;;;10545420;28;20044;-79
2023/09/29 23:59:01;;;;;;;3.65;1.88;;;;;;;;;;10543621;28;20439;-77
